< < Back
Terminal Aerodrome Forecast


Current Version              Previous Versions:   1  2  3  4  5  6  7  8  9  

Terminal Aerodrome Forecast

769
FTUS42 KGSP 121720
TAFCLT
TAF
KCLT 121720Z 1218/1318 03004KT P6SM FEW045 BKN060
      TEMPO 1218/1219 5SM -SN BKN040
     FM122100 24003KT P6SM SCT040 BKN200
     FM130300 29007KT P6SM FEW250
     FM131200 32010G17KT P6SM FEW250=



Latest METAR

845
SAUS70 KWBC 130900 RRI
MTRCLT
METAR KCLT 130852Z 32010KT 10SM FEW045 01/M10 A3008 RMK AO2 SLP191
T00061100 53007


USA.gov is the U.S. government's official web portal to all federal, state and local government web resources and services.